Time;durP1;ratioP1;P1;durP2;ratioP2;P2;SDS_P1;SDS_P2;PMS_P1;PMS_P2;Temp;Humidity;BMP_temperature;BMP_pressure;BME280_temperature;BME280_humidity;BME280_pressure;Samples;Min_cycle;Max_cycle;Signal;HPM_P1;HPM_P2
2021/01/23 00:01:14;429864.00;1.43;741.15;82553.00;0.28;143.45;;;;;7.80;1.00;;;;;;2256545;61;1056;-87
2021/01/23 00:03:42;521064.00;1.74;898.10;87423.00;0.29;151.86;;;;;7.30;1.00;;;;;;2256520;61;1285;-87
2021/01/23 00:06:08;480080.00;1.60;827.54;88679.00;0.30;154.03;;;;;7.60;1.00;;;;;;2256557;61;1920;-89
2021/01/23 00:08:35;524100.00;1.75;903.33;85044.00;0.28;147.75;;;;;7.30;1.00;;;;;;2257040;61;1038;-88
2021/01/23 00:11:01;608285.00;2.03;1048.53;86115.00;0.29;149.60;;;;;7.30;1.00;;;;;;2264408;61;990;-86
2021/01/23 00:13:28;583241.00;1.94;1005.29;90147.00;0.30;156.56;;;;;7.20;1.00;;;;;;2255435;61;1450;-88
2021/01/23 00:15:54;600961.00;2.00;1035.88;82742.00;0.28;143.77;;;;;7.20;1.00;;;;;;2272635;61;998;-89
2021/01/23 00:18:21;534984.00;1.78;922.08;93263.00;0.31;161.94;;;;;7.10;1.00;;;;;;2273448;61;1068;-89
2021/01/23 00:20:48;552313.00;1.84;951.95;69380.00;0.23;120.69;;;;;7.40;1.00;;;;;;2280684;61;943;-88
2021/01/23 00:23:15;491058.00;1.64;846.43;81692.00;0.27;141.96;;;;;7.30;1.00;;;;;;2280570;61;1078;-88
2021/01/23 00:25:41;598233.00;1.99;1031.17;83504.00;0.28;145.09;;;;;7.30;1.00;;;;;;2273822;61;2000;-89
2021/01/23 00:28:08;593884.00;1.98;1023.66;84166.00;0.28;146.23;;;;;7.10;1.00;;;;;;2270634;60;1009;-88
2021/01/23 00:30:34;524313.00;1.75;903.69;88826.00;0.30;154.28;;;;;6.90;1.00;;;;;;2272195;61;1054;-88
2021/01/23 00:33:01;621732.00;2.07;1071.76;87479.00;0.29;151.95;;;;;7.30;1.00;;;;;;2272475;61;1033;-87
2021/01/23 00:35:27;599367.00;2.00;1033.13;90483.00;0.30;157.14;;;;;7.60;1.00;;;;;;2272428;61;1502;-89
2021/01/23 00:37:55;488445.00;1.63;841.93;84691.00;0.28;147.14;;;;;7.90;1.00;;;;;;2272484;61;1053;-89
2021/01/23 00:40:21;507846.00;1.69;875.33;84654.00;0.28;147.08;;;;;8.80;1.00;;;;;;2272498;61;1054;-87
2021/01/23 00:42:48;480788.00;1.60;828.75;89903.00;0.30;156.14;;;;;9.30;1.00;;;;;;2272440;61;1127;-88
2021/01/23 00:45:14;549343.00;1.83;946.83;88612.00;0.30;153.91;;;;;9.30;1.00;;;;;;2272390;61;1429;-89
2021/01/23 00:47:41;652007.00;2.17;1124.11;87626.00;0.29;152.21;;;;;9.30;1.00;;;;;;2273126;60;2023;-88
2021/01/23 00:50:08;443415.00;1.48;764.46;85366.00;0.28;148.31;;;;;9.40;1.00;;;;;;2281028;60;924;-88
2021/01/23 00:52:36;530786.00;1.77;914.85;87876.00;0.29;152.64;;;;;9.90;1.00;;;;;;2280962;60;984;-87
2021/01/23 03:43:23;1693.00;0.01;3.55;0.00;0.00;0.62;;;;;9.60;1.00;;;;;;2286853;60;1300;-87
2021/01/23 03:45:49;11567.00;0.04;20.66;0.00;0.00;0.62;;;;;9.50;1.00;;;;;;2281156;60;2001;-88
2021/01/23 03:48:16;0.00;0.00;0.62;0.00;0.00;0.62;;;;;9.20;1.00;;;;;;2281227;60;981;-88
2021/01/23 03:50:43;62486.00;0.21;108.77;0.00;0.00;0.62;;;;;9.10;1.00;;;;;;2281217;60;951;-87
2021/01/23 03:53:09;0.00;0.00;0.62;0.00;0.00;0.62;;;;;9.00;1.00;;;;;;2281125;60;1021;-86
2021/01/23 03:55:36;14743.00;0.05;26.17;0.00;0.00;0.62;;;;;8.60;1.00;;;;;;2281145;60;1463;-86
2021/01/23 03:58:03;0.00;0.00;0.62;0.00;0.00;0.62;;;;;8.70;1.00;;;;;;2273942;61;1009;-86
2021/01/23 04:00:30;13123.00;0.04;23.36;0.00;0.00;0.62;;;;;7.90;1.00;;;;;;2281170;60;909;-87
2021/01/23 04:02:57;0.00;0.00;0.62;0.00;0.00;0.62;;;;;7.50;1.00;;;;;;2272429;61;1003;-86
2021/01/23 04:05:23;52855.00;0.18;92.12;0.00;0.00;0.62;;;;;7.10;1.00;;;;;;2269114;61;1575;-87
2021/01/23 04:07:50;13648.00;0.05;24.27;0.00;0.00;0.62;;;;;7.00;1.00;;;;;;2265573;61;1940;-87
2021/01/23 04:10:17;0.00;0.00;0.62;0.00;0.00;0.62;;;;;6.70;1.00;;;;;;2265885;61;964;-87
2021/01/23 04:12:43;7124.00;0.02;12.97;0.00;0.00;0.62;;;;;7.20;1.00;;;;;;2264416;61;946;-86
2021/01/23 04:15:11;0.00;0.00;0.62;0.00;0.00;0.62;;;;;7.40;1.00;;;;;;2264496;61;1398;-87
2021/01/23 04:17:38;1334.00;0.00;2.93;0.00;0.00;0.62;;;;;7.60;1.00;;;;;;2264488;61;1107;-87
2021/01/23 04:20:09;0.00;0.00;0.62;0.00;0.00;0.62;;;;;7.70;1.00;;;;;;2265406;61;1049;-87
2021/01/23 04:22:35;5986.00;0.02;10.99;0.00;0.00;0.62;;;;;7.40;1.00;;;;;;2272537;61;885;-86
2021/01/23 04:25:02;16045.00;0.05;28.42;0.00;0.00;0.62;;;;;7.10;1.00;;;;;;2272341;61;1395;-86
2021/01/23 04:27:28;18817.00;0.06;33.22;0.00;0.00;0.62;;;;;6.80;1.00;;;;;;2272398;61;1919;-88
2021/01/23 04:29:55;0.00;0.00;0.62;0.00;0.00;0.62;;;;;7.30;1.00;;;;;;2273764;61;945;-87
2021/01/23 04:32:21;0.00;0.00;0.62;0.00;0.00;0.62;;;;;7.20;1.00;;;;;;2277262;60;1066;-86
2021/01/23 04:34:49;31054.00;0.10;54.41;0.00;0.00;0.62;;;;;7.40;1.00;;;;;;2273873;60;1393;-87
2021/01/23 04:37:15;10172.00;0.03;18.25;0.00;0.00;0.62;;;;;7.40;1.00;;;;;;2273979;60;971;-87
2021/01/23 04:39:42;0.00;0.00;0.62;0.00;0.00;0.62;;;;;7.70;1.00;;;;;;2276469;61;948;-88
2021/01/23 04:42:09;7919.00;0.03;14.34;0.00;0.00;0.62;;;;;8.00;1.00;;;;;;2268352;61;1010;-87
2021/01/23 04:44:36;0.00;0.00;0.62;0.00;0.00;0.62;;;;;7.90;1.00;;;;;;2260183;61;1364;-87
2021/01/23 04:47:04;3405.00;0.01;6.52;0.00;0.00;0.62;;;;;8.10;1.00;;;;;;2250371;61;2009;-87
2021/01/23 04:49:32;0.00;0.00;0.62;0.00;0.00;0.62;;;;;8.30;1.00;;;;;;2260255;61;992;-89
2021/01/23 04:52:03;4306.00;0.01;8.08;0.00;0.00;0.62;;;;;7.90;1.00;;;;;;2260233;61;1154;-88
2021/01/23 04:54:30;414.00;0.00;1.34;0.00;0.00;0.62;;;;;7.90;1.00;;;;;;2260251;61;1757;-89
2021/01/23 04:56:56;18048.00;0.06;31.89;0.00;0.00;0.62;;;;;8.00;1.00;;;;;;2261013;61;1019;-89
2021/01/23 04:59:23;2947.00;0.01;5.73;0.00;0.00;0.62;;;;;8.30;1.00;;;;;;2253598;61;960;-88
2021/01/23 05:02:22;0.00;0.00;0.62;0.00;0.00;0.62;;;;;8.60;1.00;;;;;;2261629;61;1011;-90
2021/01/23 05:04:52;11887.00;0.04;21.22;0.00;0.00;0.62;;;;;8.00;1.00;;;;;;2268346;61;1386;-88
2021/01/23 05:07:27;209566.00;0.70;362.39;89909.00;0.30;156.15;;;;;7.60;1.00;;;;;;2268197;61;1992;-89
2021/01/23 05:09:54;212843.00;0.71;368.03;93405.00;0.31;162.19;;;;;7.40;1.00;;;;;;2261633;61;987;-88
2021/01/23 05:12:37;215991.00;0.72;373.45;90676.00;0.30;157.47;;;;;7.20;1.00;;;;;;2264947;61;997;-88
2021/01/23 05:15:06;370302.00;1.23;638.76;96841.00;0.32;168.12;;;;;7.10;1.00;;;;;;2260174;61;1340;-87
2021/01/23 05:17:44;369855.00;1.23;637.99;93401.00;0.31;162.18;;;;;7.00;1.00;;;;;;2260431;61;955;-88
2021/01/23 05:20:13;512677.00;1.71;883.65;86611.00;0.29;150.46;;;;;6.80;1.00;;;;;;2268245;61;920;-89
2021/01/23 05:22:49;399690.00;1.33;689.27;88963.00;0.30;154.52;;;;;6.70;1.00;;;;;;2268236;61;1042;-89
2021/01/23 05:25:15;319628.00;1.07;551.66;0.00;0.00;0.62;;;;;6.90;1.00;;;;;;2266367;61;1444;-90
2021/01/23 05:27:46;238595.00;0.80;412.33;0.00;0.00;0.62;;;;;6.90;1.00;;;;;;2264207;61;1996;-91
2021/01/23 05:30:14;359999.00;1.20;621.05;0.00;0.00;0.62;;;;;6.60;1.00;;;;;;2260812;61;1014;-88
2021/01/23 05:32:40;303545.00;1.01;524.01;0.00;0.00;0.62;;;;;6.90;1.00;;;;;;2266868;61;984;-91
2021/01/23 05:35:16;408571.00;1.36;704.54;90970.00;0.30;157.98;;;;;7.10;1.00;;;;;;2272232;61;1347;-89
2021/01/23 05:37:43;454779.00;1.52;784.00;93105.00;0.31;161.67;;;;;7.40;1.00;;;;;;2271302;60;968;-89
2021/01/23 05:40:11;353315.00;1.18;609.56;88141.00;0.29;153.10;;;;;7.50;1.00;;;;;;2276223;61;927;-89
2021/01/23 05:42:42;253882.00;0.85;438.63;75346.00;0.25;131.00;;;;;8.00;1.00;;;;;;2269570;61;972;-89
2021/01/23 05:45:11;380558.00;1.27;656.38;87482.00;0.29;151.96;;;;;8.20;1.00;;;;;;2276268;61;1352;-89
2021/01/23 05:47:39;190300.00;0.63;329.23;96773.00;0.32;168.00;;;;;8.50;1.00;;;;;;2269532;61;2010;-89
2021/01/23 05:50:07;217430.00;0.72;375.92;91792.00;0.31;159.40;;;;;8.30;1.00;;;;;;2269601;61;943;-90
2021/01/23 05:52:34;355874.00;1.19;613.96;91594.00;0.31;159.06;;;;;7.40;1.00;;;;;;2269533;61;996;-90
2021/01/23 05:55:01;285313.00;0.95;492.67;91497.00;0.30;158.89;;;;;7.30;1.00;;;;;;2276208;61;1286;-90
2021/01/23 05:57:29;245068.00;0.82;423.47;95838.00;0.32;166.39;;;;;7.40;1.00;;;;;;2270327;61;939;-90
2021/01/23 05:59:56;251431.00;0.84;434.41;89978.00;0.30;156.27;;;;;6.80;1.00;;;;;;2276095;61;965;-89
2021/01/23 06:02:23;298927.00;1.00;516.08;88034.00;0.29;152.91;;;;;6.70;1.00;;;;;;2264058;61;981;-90
2021/01/23 06:04:51;263906.00;0.88;455.87;88004.00;0.29;152.86;;;;;6.80;1.00;;;;;;2264055;61;1424;-89
2021/01/23 06:07:41;311700.00;1.04;538.03;91302.00;0.30;158.56;;;;;6.50;1.00;;;;;;2263969;61;1916;-88
2021/01/23 06:15:34;843479.00;2.81;1457.06;138059.00;0.46;239.22;;;;;6.30;1.00;;;;;;2283214;61;1382;-90
2021/01/23 06:20:52;712905.00;2.38;1229.62;76330.00;0.25;132.70;;;;;6.00;1.00;;;;;;2282435;60;1504;-87
2021/01/23 06:23:21;277060.00;0.92;478.48;0.00;0.00;0.62;;;;;6.30;1.00;;;;;;2272075;61;981;-88
2021/01/23 06:28:15;585383.00;1.95;1008.99;87332.00;0.29;151.70;;;;;6.30;1.00;;;;;;2282561;61;1966;-86
2021/01/23 06:30:42;513425.00;1.71;884.94;86530.00;0.29;150.32;;;;;6.50;1.00;;;;;;2280681;61;1012;-89
2021/01/23 06:33:30;303413.00;1.01;523.79;97852.00;0.33;169.86;;;;;6.70;1.00;;;;;;2276915;61;1000;-90
2021/01/23 06:36:17;347416.00;1.16;599.42;97026.00;0.32;168.44;;;;;6.60;1.00;;;;;;2276209;61;989;-91
2021/01/23 06:39:00;452981.00;1.51;780.91;91828.00;0.31;159.46;;;;;7.00;1.00;;;;;;2269533;61;1043;-89
2021/01/23 06:41:27;251052.00;0.84;433.76;95501.00;0.32;165.81;;;;;7.00;1.00;;;;;;2276056;61;935;-90
2021/01/23 06:44:09;23769.00;0.08;41.80;0.00;0.00;0.62;;;;;7.00;1.00;;;;;;2272026;61;1453;-90
2021/01/23 06:46:39;6310.00;0.02;11.56;0.00;0.00;0.62;;;;;7.20;1.00;;;;;;2259859;61;1997;-89
2021/01/23 06:49:07;29694.00;0.10;52.05;0.00;0.00;0.62;;;;;7.30;1.00;;;;;;2250077;61;1031;-90
2021/01/23 06:51:34;33280.00;0.11;58.26;0.00;0.00;0.62;;;;;7.50;1.00;;;;;;2247954;61;1049;-91
2021/01/23 06:54:11;11488.00;0.04;20.53;0.00;0.00;0.62;;;;;7.80;1.00;;;;;;2243947;62;1550;-91
2021/01/23 06:56:38;58487.00;0.19;101.86;0.00;0.00;0.62;;;;;7.80;1.00;;;;;;2244078;62;956;-90
2021/01/23 06:59:04;33379.00;0.11;58.43;0.00;0.00;0.62;;;;;7.70;1.00;;;;;;2240677;62;1005;-91
2021/01/23 07:01:31;7246.00;0.02;13.18;0.00;0.00;0.62;;;;;7.90;1.00;;;;;;2245314;61;1056;-91
2021/01/23 07:03:58;15598.00;0.05;27.65;0.00;0.00;0.62;;;;;8.00;1.00;;;;;;2249730;61;1302;-87
2021/01/23 07:06:31;117954.00;0.39;204.55;37312.00;0.12;65.24;;;;;8.20;1.00;;;;;;2255940;61;2002;-87
2021/01/23 07:08:58;38138.00;0.13;66.67;0.00;0.00;0.62;;;;;8.30;1.00;;;;;;2255373;61;1004;-87
2021/01/23 07:11:24;0.00;0.00;0.62;0.00;0.00;0.62;;;;;8.30;1.00;;;;;;2269969;61;935;-86
2021/01/23 07:14:00;1550.00;0.01;3.31;0.00;0.00;0.62;;;;;8.40;1.00;;;;;;2276070;61;1443;-87
2021/01/23 07:16:28;43032.00;0.14;75.13;0.00;0.00;0.62;;;;;8.40;1.00;;;;;;2272797;61;946;-88
2021/01/23 07:18:56;0.00;0.00;0.62;0.00;0.00;0.62;;;;;8.40;1.00;;;;;;2276074;61;995;-88
2021/01/23 07:21:25;63027.00;0.21;109.71;0.00;0.00;0.62;;;;;7.90;1.00;;;;;;2263867;61;983;-87
2021/01/23 07:23:56;9667.00;0.03;17.37;0.00;0.00;0.62;;;;;7.60;1.00;;;;;;2257197;61;1408;-89
2021/01/23 07:26:23;69816.00;0.23;121.44;0.00;0.00;0.62;;;;;7.50;1.00;;;;;;2263736;61;1997;-88
2021/01/23 07:28:51;18498.00;0.06;32.67;0.00;0.00;0.62;;;;;7.20;1.00;;;;;;2257268;61;1023;-89
2021/01/23 07:31:19;1291.00;0.00;2.86;0.00;0.00;0.62;;;;;7.10;1.00;;;;;;2253969;61;971;-88
2021/01/23 07:33:46;79470.00;0.26;138.12;0.00;0.00;0.62;;;;;7.30;1.00;;;;;;2251734;61;1427;-89
2021/01/23 07:36:27;9832.00;0.03;17.66;0.00;0.00;0.62;;;;;6.90;1.00;;;;;;2251907;61;1027;-88
2021/01/23 07:38:54;0.00;0.00;0.62;0.00;0.00;0.62;;;;;7.20;1.00;;;;;;2254783;61;1086;-88
2021/01/23 07:41:21;10085.00;0.03;18.10;0.00;0.00;0.62;;;;;7.20;1.00;;;;;;2263796;61;977;-88
2021/01/23 07:43:48;15126.00;0.05;26.83;0.00;0.00;0.62;;;;;7.20;1.00;;;;;;2264158;61;1470;-88
2021/01/23 07:46:15;0.00;0.00;0.62;0.00;0.00;0.62;;;;;7.70;1.00;;;;;;2257895;61;2002;-88
2021/01/23 07:48:42;0.00;0.00;0.62;0.00;0.00;0.62;;;;;8.00;1.00;;;;;;2264670;61;1149;-87
2021/01/23 07:51:25;7269.00;0.02;13.22;0.00;0.00;0.62;;;;;8.40;1.00;;;;;;2257471;61;983;-87
2021/01/23 07:54:08;5977.00;0.02;10.98;0.00;0.00;0.62;;;;;8.50;1.00;;;;;;2276584;61;1342;-88
2021/01/23 07:56:35;15059.00;0.05;26.71;0.00;0.00;0.62;;;;;8.30;1.00;;;;;;2256490;61;1042;-86
2021/01/23 07:59:02;0.00;0.00;0.62;0.00;0.00;0.62;;;;;8.70;1.00;;;;;;2252404;61;1008;-86
2021/01/23 08:01:29;0.00;0.00;0.62;0.00;0.00;0.62;;;;;9.10;1.00;;;;;;2249141;61;1402;-88
2021/01/23 08:03:56;20321.00;0.07;35.83;0.00;0.00;0.62;;;;;9.10;1.00;;;;;;2245900;61;1339;-88
2021/01/23 08:06:23;0.00;0.00;0.62;0.00;0.00;0.62;;;;;9.10;1.00;;;;;;2249070;61;1993;-88
2021/01/23 08:08:50;3276.00;0.01;6.30;0.00;0.00;0.62;;;;;9.10;1.00;;;;;;2252467;61;962;-88
2021/01/23 08:11:41;0.00;0.00;0.62;0.00;0.00;0.62;;;;;8.50;1.00;;;;;;2249093;61;956;-87
2021/01/23 08:14:12;0.00;0.00;0.62;0.00;0.00;0.62;;;;;8.50;1.00;;;;;;2249111;61;1426;-87
2021/01/23 08:16:52;0.00;0.00;0.62;0.00;0.00;0.62;;;;;8.90;1.00;;;;;;2253871;61;1019;-88
2021/01/23 08:19:21;615701.00;2.05;1061.34;109918.00;0.37;190.69;;;;;8.80;1.00;;;;;;2256370;61;1011;-87
2021/01/23 08:22:06;35554.00;0.12;62.20;0.00;0.00;0.62;;;;;8.90;1.00;;;;;;2246621;61;964;-88
2021/01/23 08:24:35;20099.00;0.07;35.44;0.00;0.00;0.62;;;;;9.00;1.00;;;;;;2246514;61;1459;-88
2021/01/23 08:27:15;16849.00;0.06;29.81;0.00;0.00;0.62;;;;;9.20;1.00;;;;;;2246571;61;2007;-86
2021/01/23 08:29:44;115040.00;0.38;199.53;9858.00;0.03;17.70;;;;;9.50;1.00;;;;;;2249844;61;982;-88
2021/01/23 08:32:11;118944288.00;396.48;68167056.00;118824304.00;396.08;67960808.00;;;;;9.40;1.00;;;;;;2246561;61;998;-87
2021/01/23 08:34:37;171228.00;0.57;296.38;89256.00;0.30;155.02;;;;;9.40;1.00;;;;;;2271218;61;1421;-88
2021/01/23 08:37:04;0.00;0.00;0.62;0.00;0.00;0.62;;;;;9.80;1.00;;;;;;2274113;61;945;-87
2021/01/23 08:39:39;82146.00;0.27;142.74;0.00;0.00;0.62;;;;;10.30;1.00;;;;;;2269860;61;952;-89
2021/01/23 08:42:07;230381.00;0.77;398.20;85609.00;0.29;148.73;;;;;10.70;1.00;;;;;;2276946;61;897;-88
2021/01/23 08:44:33;168123.00;0.56;291.03;87480.00;0.29;151.96;;;;;10.60;1.00;;;;;;2273100;61;1412;-87
2021/01/23 08:47:02;210502.00;0.70;364.00;92285.00;0.31;160.25;;;;;10.60;1.00;;;;;;2273071;61;2004;-85
2021/01/23 08:49:28;171153.00;0.57;296.25;95231.00;0.32;165.34;;;;;10.50;1.00;;;;;;2273097;61;1007;-89
2021/01/23 08:51:55;220803.00;0.74;381.73;89543.00;0.30;155.52;;;;;9.70;1.00;;;;;;2272369;61;938;-89
2021/01/23 08:54:21;162669.00;0.54;281.64;81176.00;0.27;141.07;;;;;9.70;1.00;;;;;;2268893;61;1389;-89
2021/01/23 08:56:48;179509.00;0.60;310.64;104144.00;0.35;180.72;;;;;9.50;1.00;;;;;;2262320;61;989;-88
2021/01/23 08:59:16;260021.00;0.87;449.18;88066.00;0.29;152.97;;;;;9.40;1.00;;;;;;2262293;61;976;-88
2021/01/23 09:01:42;166864.00;0.56;288.86;76603.00;0.26;133.17;;;;;9.50;1.00;;;;;;2265649;61;1093;-89
2021/01/23 09:04:09;175343.00;0.58;303.47;79021.00;0.26;137.35;;;;;9.80;1.00;;;;;;2269022;61;1342;-88
2021/01/23 09:06:36;176520.00;0.59;305.50;96622.00;0.32;167.74;;;;;9.90;1.00;;;;;;2272383;61;2000;-88
2021/01/23 09:09:04;186737.00;0.62;323.09;93539.00;0.31;162.42;;;;;9.70;1.00;;;;;;2266168;61;951;-88
2021/01/23 09:11:30;166323.00;0.55;287.93;83383.00;0.28;144.88;;;;;9.40;1.00;;;;;;2269658;61;1005;-87
2021/01/23 09:13:57;168173.00;0.56;291.12;86235.00;0.29;149.81;;;;;9.30;1.00;;;;;;2276702;61;1438;-89
2021/01/23 09:16:24;177668.00;0.59;307.47;87272.00;0.29;151.60;;;;;9.50;1.00;;;;;;2276335;61;977;-88
2021/01/23 09:18:51;207320.00;0.69;358.52;91978.00;0.31;159.72;;;;;9.30;1.00;;;;;;2269752;61;1005;-88
2021/01/23 09:21:18;210385.00;0.70;363.80;86310.00;0.29;149.94;;;;;8.90;1.00;;;;;;2276351;61;980;-87
2021/01/23 09:23:45;216770.00;0.72;374.79;71466.00;0.24;124.29;;;;;9.40;1.00;;;;;;2276730;61;1352;-90
2021/01/23 09:26:11;205810.00;0.69;355.92;71450.00;0.24;124.27;;;;;9.40;1.00;;;;;;2276262;61;1085;-90
2021/01/23 09:28:38;172179.00;0.57;298.02;88154.00;0.29;153.12;;;;;9.90;1.00;;;;;;2276257;61;1928;-89
2021/01/23 09:33:33;448753.00;1.50;773.64;87190.00;0.29;151.46;;;;;10.40;1.00;;;;;;2282230;60;1413;-89
2021/01/23 09:43:23;118484224.00;394.95;67378432.00;87274.00;0.29;151.60;;;;;9.90;1.00;;;;;;2282316;61;1196;-89
2021/01/23 09:45:50;345112.00;1.15;595.46;87833.00;0.29;152.57;;;;;9.90;1.00;;;;;;2280797;60;1315;-87
2021/01/23 09:48:19;170692.00;0.57;295.46;89656.00;0.30;155.71;;;;;10.20;1.00;;;;;;2270287;61;2005;-89
2021/01/23 09:50:48;252701.00;0.84;436.60;90315.00;0.30;156.85;;;;;10.30;1.00;;;;;;2277003;60;958;-90
2021/01/23 09:55:42;563105.00;1.88;970.55;91344.00;0.30;158.63;;;;;10.50;1.00;;;;;;2282691;60;1408;-88
2021/01/23 09:58:09;263340.00;0.88;454.89;93492.00;0.31;162.34;;;;;10.50;1.00;;;;;;2276163;61;980;-89
2021/01/23 10:00:36;264492.00;0.88;456.87;98022.00;0.33;170.16;;;;;11.00;1.00;;;;;;2276308;61;951;-90
2021/01/23 10:03:02;289666.00;0.97;500.16;84208.00;0.28;146.31;;;;;11.60;1.00;;;;;;2264087;61;936;-91
2021/01/23 10:05:29;362817.00;1.21;625.89;91294.00;0.30;158.54;;;;;11.90;1.00;;;;;;2260671;61;1428;-88
2021/01/23 10:07:56;405928.00;1.35;700.00;73580.00;0.25;127.95;;;;;12.20;1.00;;;;;;2254194;61;2001;-89
2021/01/23 10:10:24;229665.00;0.77;396.97;77267.00;0.26;134.32;;;;;12.40;1.00;;;;;;2264167;61;939;-87
2021/01/23 10:12:51;273128.00;0.91;471.72;91286.00;0.30;158.53;;;;;12.60;1.00;;;;;;2254155;61;1046;-88
2021/01/23 10:15:18;306642.00;1.02;529.34;85790.00;0.29;149.04;;;;;12.60;1.00;;;;;;2258383;61;1380;-86
2021/01/23 10:17:45;117204080.00;390.68;65216092.00;90652.00;0.30;157.43;;;;;12.10;1.00;;;;;;2268843;61;1019;-89
2021/01/23 10:20:12;200880.00;0.67;347.44;95017.00;0.32;164.97;;;;;11.70;1.00;;;;;;2273279;60;1031;-87
2021/01/23 10:22:38;303656.00;1.01;524.20;93124.00;0.31;161.70;;;;;11.30;1.00;;;;;;2280790;60;775;-88
2021/01/23 10:25:07;305739.00;1.02;527.79;88467.00;0.29;153.66;;;;;11.00;1.00;;;;;;2276860;60;1380;-89
2021/01/23 10:27:34;418228.00;1.39;721.14;88797.00;0.30;154.23;;;;;10.90;1.00;;;;;;2276955;60;1996;-86
2021/01/23 10:30:01;333653.00;1.11;575.76;88364.00;0.29;153.48;;;;;10.70;1.00;;;;;;2280618;60;1029;-84
2021/01/23 10:32:29;295686.00;0.99;510.50;88923.00;0.30;154.45;;;;;10.50;1.00;;;;;;2280463;60;1206;-87
2021/01/23 10:34:55;356810.00;1.19;615.57;82795.00;0.28;143.87;;;;;10.40;1.00;;;;;;2272000;61;1492;-88
2021/01/23 10:37:22;220340.00;0.73;380.93;78306.00;0.26;136.11;;;;;10.20;1.00;;;;;;2268680;61;976;-88
2021/01/23 10:39:48;387447.00;1.29;668.23;85891.00;0.29;149.21;;;;;10.30;1.00;;;;;;2263942;61;969;-87
2021/01/23 10:57:07;1520372.00;5.07;2681.51;82706.00;0.28;143.71;;;;;11.90;1.00;;;;;;2282712;61;1005;-90
2021/01/23 11:44:53;391103.00;1.30;674.51;0.00;0.00;0.62;;;;;13.50;1.00;;;;;;2282926;60;1415;-88
2021/01/23 11:59:58;235328.00;0.78;406.71;0.00;0.00;0.62;;;;;13.50;1.00;;;;;;2281990;60;1289;-86
2021/01/23 12:02:25;149897.00;0.50;259.63;0.00;0.00;0.62;;;;;13.60;1.00;;;;;;2280632;60;1438;-87
2021/01/23 12:04:51;318222.00;1.06;549.24;36563.00;0.12;63.94;;;;;13.40;1.00;;;;;;2280724;61;1068;-87
2021/01/23 12:07:20;180432.00;0.60;312.23;0.00;0.00;0.62;;;;;12.80;1.00;;;;;;2280589;61;1988;-87
2021/01/23 12:09:46;324320.00;1.08;559.72;0.00;0.00;0.62;;;;;13.00;1.00;;;;;;2280244;61;1119;-86
2021/01/23 12:12:13;562485.00;1.87;969.49;97202.00;0.32;168.74;;;;;12.90;1.00;;;;;;2280338;61;1710;-87
2021/01/23 12:14:40;188704.00;0.63;326.48;0.00;0.00;0.62;;;;;13.00;1.00;;;;;;2280775;61;1129;-87
2021/01/23 12:17:07;224421.00;0.75;387.95;0.00;0.00;0.62;;;;;13.00;1.00;;;;;;2280708;61;1739;-87
2021/01/23 12:19:34;419684.00;1.40;723.65;0.00;0.00;0.62;;;;;13.20;1.00;;;;;;2280745;61;1751;-86
2021/01/23 12:22:00;288086.00;0.96;497.44;0.00;0.00;0.62;;;;;12.80;1.00;;;;;;2280746;61;1132;-87
2021/01/23 12:24:28;424760.00;1.42;732.38;0.00;0.00;0.62;;;;;13.10;1.00;;;;;;2280722;61;1242;-88
2021/01/23 12:26:55;250911.00;0.84;433.52;0.00;0.00;0.62;;;;;13.30;1.00;;;;;;2280713;61;1937;-85
2021/01/23 12:29:21;272128.00;0.91;470.00;0.00;0.00;0.62;;;;;13.10;1.00;;;;;;2280592;61;1161;-86
2021/01/23 12:31:48;278032.00;0.93;480.15;0.00;0.00;0.62;;;;;13.00;1.00;;;;;;2280714;61;1074;-86
2021/01/23 12:34:15;247946.00;0.83;428.42;0.00;0.00;0.62;;;;;12.90;1.00;;;;;;2280707;61;1404;-86
2021/01/23 12:36:42;117661032.00;392.20;65982548.00;0.00;0.00;0.62;;;;;13.00;1.00;;;;;;2280676;61;1567;-88
2021/01/23 12:39:08;407674.00;1.36;703.00;0.00;0.00;0.62;;;;;13.10;1.00;;;;;;2280767;61;1017;-87
2021/01/23 12:41:35;266870.00;0.89;460.96;0.00;0.00;0.62;;;;;12.70;1.00;;;;;;2280719;61;1130;-87
2021/01/23 12:44:01;289808.00;0.97;500.40;0.00;0.00;0.62;;;;;13.00;1.00;;;;;;2280641;61;1564;-88
2021/01/23 12:46:29;351132.00;1.17;605.81;0.00;0.00;0.62;;;;;12.70;1.00;;;;;;2280661;61;1619;-86
2021/01/23 12:48:55;356764.00;1.19;615.49;0.00;0.00;0.62;;;;;13.00;1.00;;;;;;2280683;61;2010;-87
2021/01/23 12:51:22;331780.00;1.11;572.55;0.00;0.00;0.62;;;;;12.80;1.00;;;;;;2280683;61;1016;-87
2021/01/23 12:53:49;344568.00;1.15;594.52;0.00;0.00;0.62;;;;;13.00;1.00;;;;;;2280638;61;1390;-86
2021/01/23 12:56:16;116953392.00;389.84;64798148.00;0.00;0.00;0.62;;;;;13.30;1.00;;;;;;2280660;61;1695;-87
2021/01/23 12:58:42;288313.00;0.96;497.83;0.00;0.00;0.62;;;;;13.40;1.00;;;;;;2280636;61;1019;-86
2021/01/23 13:01:08;295683.00;0.99;510.50;0.00;0.00;0.62;;;;;13.70;1.00;;;;;;2280697;61;1055;-87
2021/01/23 13:03:35;420169.00;1.40;724.48;39945.00;0.13;69.79;;;;;14.00;1.00;;;;;;2280628;61;1369;-87
2021/01/23 13:06:05;359704.00;1.20;620.54;0.00;0.00;0.62;;;;;14.50;1.00;;;;;;2280668;61;1114;-88
2021/01/23 13:08:32;244786.00;0.82;422.98;0.00;0.00;0.62;;;;;14.40;1.00;;;;;;2280564;61;2006;-87
2021/01/23 13:10:59;273592.00;0.91;472.52;0.00;0.00;0.62;;;;;14.00;1.00;;;;;;2280582;61;1440;-87
2021/01/23 13:13:25;223397.00;0.74;386.19;0.00;0.00;0.62;;;;;13.90;1.00;;;;;;2280621;61;1308;-87
2021/01/23 13:15:52;384329.00;1.28;662.87;0.00;0.00;0.62;;;;;13.40;1.00;;;;;;2280652;61;1055;-87
2021/01/23 13:18:18;242037.00;0.81;418.26;0.00;0.00;0.62;;;;;13.50;1.00;;;;;;2280581;61;1734;-86
2021/01/23 13:20:45;601468.00;2.00;1036.75;171113.00;0.57;296.18;;;;;13.30;1.00;;;;;;2280609;61;1114;-87
2021/01/23 13:23:12;373202.00;1.24;643.74;0.00;0.00;0.62;;;;;13.70;1.00;;;;;;2280528;61;1325;-87
2021/01/23 13:25:39;379425.00;1.26;654.44;0.00;0.00;0.62;;;;;13.60;1.00;;;;;;2280346;61;1079;-86
2021/01/23 13:28:06;275124.00;0.92;475.15;0.00;0.00;0.62;;;;;13.80;1.00;;;;;;2280540;61;1980;-87
2021/01/23 13:30:32;246959.00;0.82;426.72;0.00;0.00;0.62;;;;;13.50;1.00;;;;;;2280550;61;1123;-87
2021/01/23 13:32:59;316968.00;1.06;547.09;0.00;0.00;0.62;;;;;13.60;1.00;;;;;;2280502;61;1301;-86
2021/01/23 13:35:25;286568.00;0.96;494.83;0.00;0.00;0.62;;;;;13.00;1.00;;;;;;2280511;61;1702;-87
2021/01/23 13:37:52;268285.00;0.89;463.40;0.00;0.00;0.62;;;;;12.60;1.00;;;;;;2280455;61;1574;-87
2021/01/23 13:40:18;303599.00;1.01;524.11;0.00;0.00;0.62;;;;;12.60;1.00;;;;;;2280370;61;1129;-87
2021/01/23 13:42:46;415124.00;1.38;715.81;0.00;0.00;0.62;;;;;11.40;1.00;;;;;;2280403;61;1404;-87
2021/01/23 13:45:13;256020.00;0.85;442.30;0.00;0.00;0.62;;;;;11.10;1.00;;;;;;2280478;61;921;-87
2021/01/23 13:47:39;265751.00;0.89;459.04;0.00;0.00;0.62;;;;;11.60;1.00;;;;;;2280455;61;1994;-87
2021/01/23 13:50:07;345523.00;1.15;596.17;0.00;0.00;0.62;;;;;12.10;1.00;;;;;;2280491;61;1005;-86
2021/01/23 13:52:34;332957.00;1.11;574.57;0.00;0.00;0.62;;;;;12.00;1.00;;;;;;2280420;61;1386;-86
2021/01/23 13:55:00;313640.00;1.05;541.37;0.00;0.00;0.62;;;;;11.80;1.00;;;;;;2280466;61;1090;-86
2021/01/23 13:57:27;355918.00;1.19;614.03;0.00;0.00;0.62;;;;;11.40;1.00;;;;;;2280412;61;1072;-86
2021/01/23 13:59:54;547741.00;1.83;944.07;0.00;0.00;0.62;;;;;11.60;1.00;;;;;;2280417;61;1035;-86
2021/01/23 14:02:20;417812.00;1.39;720.43;0.00;0.00;0.62;;;;;11.80;1.00;;;;;;2280364;61;1349;-86
2021/01/23 14:04:47;506213.00;1.69;872.52;14067.00;0.05;24.99;;;;;12.10;1.00;;;;;;2280438;61;1151;-86
2021/01/23 14:07:13;488801.00;1.63;842.55;0.00;0.00;0.62;;;;;12.10;1.00;;;;;;2280407;61;1991;-86
2021/01/23 14:09:41;548312.00;1.83;945.05;115131.00;0.38;199.68;;;;;12.00;1.00;;;;;;2280432;61;1075;-86
2021/01/23 14:12:08;311345.00;1.04;537.42;0.00;0.00;0.62;;;;;11.60;1.00;;;;;;2280422;61;1413;-86
2021/01/23 14:14:36;511039.00;1.70;880.83;0.00;0.00;0.62;;;;;11.30;1.00;;;;;;2280409;61;977;-85
2021/01/23 14:17:03;372087.00;1.24;641.82;0.00;0.00;0.62;;;;;11.20;1.00;;;;;;2280397;61;1283;-84
2021/01/23 14:19:29;312652.00;1.04;539.67;0.00;0.00;0.62;;;;;10.90;1.00;;;;;;2280388;61;1115;-85
2021/01/23 14:21:56;371152.00;1.24;640.22;0.00;0.00;0.62;;;;;10.60;1.00;;;;;;2280439;61;941;-85
2021/01/23 14:24:23;373393.00;1.24;644.07;0.00;0.00;0.62;;;;;10.30;1.00;;;;;;2280357;61;1324;-85